sensor_id;sensor_type;location;lat;lon;timestamp;temperature;humidity
13806;DHT22;6974;53.606;9.872;2022-11-13T00:00:28;8.10;99.90
13806;DHT22;6974;53.606;9.872;2022-11-13T00:02:55;8.10;99.90
13806;DHT22;6974;53.606;9.872;2022-11-13T00:05:22;8.00;99.90
13806;DHT22;6974;53.606;9.872;2022-11-13T00:07:49;8.00;99.90
13806;DHT22;6974;53.606;9.872;2022-11-13T00:10:18;8.00;99.90
13806;DHT22;6974;53.606;9.872;2022-11-13T00:12:45;8.00;99.90
13806;DHT22;6974;53.606;9.872;2022-11-13T00:15:11;8.00;99.90
13806;DHT22;6974;53.606;9.872;2022-11-13T00:17:38;7.90;99.90
13806;DHT22;6974;53.606;9.872;2022-11-13T00:20:06;7.90;99.90
13806;DHT22;6974;53.606;9.872;2022-11-13T00:22:33;7.90;99.90
13806;DHT22;6974;53.606;9.872;2022-11-13T00:25:00;7.90;99.90
13806;DHT22;6974;53.606;9.872;2022-11-13T00:27:30;7.90;99.90
13806;DHT22;6974;53.606;9.872;2022-11-13T00:29:57;7.90;99.90
13806;DHT22;6974;53.606;9.872;2022-11-13T00:32:24;7.90;99.90
13806;DHT22;6974;53.606;9.872;2022-11-13T00:34:51;7.90;99.90
13806;DHT22;6974;53.606;9.872;2022-11-13T00:37:18;7.90;99.90
13806;DHT22;6974;53.606;9.872;2022-11-13T00:39:45;7.80;99.90
13806;DHT22;6974;53.606;9.872;2022-11-13T00:42:12;7.80;99.90
13806;DHT22;6974;53.606;9.872;2022-11-13T00:44:40;7.80;99.90
13806;DHT22;6974;53.606;9.872;2022-11-13T00:47:07;7.80;99.90
13806;DHT22;6974;53.606;9.872;2022-11-13T00:49:34;7.70;99.90
13806;DHT22;6974;53.606;9.872;2022-11-13T00:52:01;7.70;99.90
13806;DHT22;6974;53.606;9.872;2022-11-13T00:54:28;7.70;99.90
13806;DHT22;6974;53.606;9.872;2022-11-13T00:56:55;7.70;99.90
13806;DHT22;6974;53.606;9.872;2022-11-13T00:59:22;7.70;99.90
13806;DHT22;6974;53.606;9.872;2022-11-13T01:01:50;7.60;99.90
13806;DHT22;6974;53.606;9.872;2022-11-13T01:04:17;7.60;99.90
13806;DHT22;6974;53.606;9.872;2022-11-13T01:06:44;7.60;99.90
13806;DHT22;6974;53.606;9.872;2022-11-13T01:09:11;7.60;99.90
13806;DHT22;6974;53.606;9.872;2022-11-13T01:11:38;7.50;99.90
13806;DHT22;6974;53.606;9.872;2022-11-13T01:14:04;7.50;99.90
13806;DHT22;6974;53.606;9.872;2022-11-13T01:16:31;7.50;99.90
13806;DHT22;6974;53.606;9.872;2022-11-13T01:19:00;7.60;99.90
13806;DHT22;6974;53.606;9.872;2022-11-13T01:21:27;7.50;99.90
13806;DHT22;6974;53.606;9.872;2022-11-13T01:23:54;7.50;99.90
13806;DHT22;6974;53.606;9.872;2022-11-13T01:26:23;7.50;99.90
13806;DHT22;6974;53.606;9.872;2022-11-13T01:28:50;7.50;99.90
13806;DHT22;6974;53.606;9.872;2022-11-13T01:31:19;7.50;99.90
13806;DHT22;6974;53.606;9.872;2022-11-13T01:33:47;7.50;99.90
13806;DHT22;6974;53.606;9.872;2022-11-13T01:36:16;7.50;99.90
13806;DHT22;6974;53.606;9.872;2022-11-13T01:38:43;7.50;99.90
13806;DHT22;6974;53.606;9.872;2022-11-13T01:41:16;7.40;99.90
13806;DHT22;6974;53.606;9.872;2022-11-13T01:43:43;7.40;99.90
13806;DHT22;6974;53.606;9.872;2022-11-13T01:46:23;7.40;99.90
13806;DHT22;6974;53.606;9.872;2022-11-13T01:48:55;7.40;99.90
13806;DHT22;6974;53.606;9.872;2022-11-13T01:51:28;7.40;99.90
13806;DHT22;6974;53.606;9.872;2022-11-13T01:53:56;7.40;99.90
13806;DHT22;6974;53.606;9.872;2022-11-13T01:56:24;7.30;99.90
13806;DHT22;6974;53.606;9.872;2022-11-13T01:58:56;7.30;99.90
13806;DHT22;6974;53.606;9.872;2022-11-13T02:01:24;7.40;99.90
13806;DHT22;6974;53.606;9.872;2022-11-13T02:03:50;7.40;99.90
13806;DHT22;6974;53.606;9.872;2022-11-13T02:06:18;7.40;99.90
13806;DHT22;6974;53.606;9.872;2022-11-13T02:08:48;7.40;99.90
13806;DHT22;6974;53.606;9.872;2022-11-13T02:11:16;7.30;99.90
13806;DHT22;6974;53.606;9.872;2022-11-13T02:13:43;7.30;99.90
13806;DHT22;6974;53.606;9.872;2022-11-13T02:16:11;7.30;99.90
13806;DHT22;6974;53.606;9.872;2022-11-13T02:18:39;7.30;99.90
13806;DHT22;6974;53.606;9.872;2022-11-13T02:21:16;7.30;99.90
13806;DHT22;6974;53.606;9.872;2022-11-13T02:23:53;7.30;99.90
13806;DHT22;6974;53.606;9.872;2022-11-13T02:26:25;7.30;99.90
13806;DHT22;6974;53.606;9.872;2022-11-13T02:28:53;7.30;99.90
13806;DHT22;6974;53.606;9.872;2022-11-13T02:31:20;7.30;99.90
13806;DHT22;6974;53.606;9.872;2022-11-13T02:33:47;7.20;99.90
13806;DHT22;6974;53.606;9.872;2022-11-13T02:38:49;7.30;99.90
13806;DHT22;6974;53.606;9.872;2022-11-13T02:41:20;7.30;99.90
13806;DHT22;6974;53.606;9.872;2022-11-13T02:43:50;7.30;99.90
13806;DHT22;6974;53.606;9.872;2022-11-13T02:46:17;7.20;99.90
13806;DHT22;6974;53.606;9.872;2022-11-13T02:48:44;7.30;99.90
13806;DHT22;6974;53.606;9.872;2022-11-13T02:51:11;7.20;99.90
13806;DHT22;6974;53.606;9.872;2022-11-13T02:53:39;7.20;99.90
13806;DHT22;6974;53.606;9.872;2022-11-13T02:56:06;7.10;99.90
13806;DHT22;6974;53.606;9.872;2022-11-13T02:58:33;7.20;99.90
13806;DHT22;6974;53.606;9.872;2022-11-13T03:01:02;7.20;99.90
13806;DHT22;6974;53.606;9.872;2022-11-13T03:03:30;7.20;99.90
13806;DHT22;6974;53.606;9.872;2022-11-13T03:05:57;7.20;99.90
13806;DHT22;6974;53.606;9.872;2022-11-13T03:08:24;7.20;99.90
13806;DHT22;6974;53.606;9.872;2022-11-13T03:10:52;7.30;99.90
13806;DHT22;6974;53.606;9.872;2022-11-13T03:13:21;7.30;99.90
13806;DHT22;6974;53.606;9.872;2022-11-13T03:15:48;7.30;99.90
13806;DHT22;6974;53.606;9.872;2022-11-13T03:18:16;7.30;99.90
13806;DHT22;6974;53.606;9.872;2022-11-13T03:20:43;7.40;99.90
13806;DHT22;6974;53.606;9.872;2022-11-13T03:23:10;7.40;99.90
13806;DHT22;6974;53.606;9.872;2022-11-13T03:25:38;7.50;99.90
13806;DHT22;6974;53.606;9.872;2022-11-13T03:28:05;7.60;99.90
13806;DHT22;6974;53.606;9.872;2022-11-13T03:30:33;7.60;99.90
13806;DHT22;6974;53.606;9.872;2022-11-13T03:33:00;7.60;99.90
13806;DHT22;6974;53.606;9.872;2022-11-13T03:35:29;7.60;99.90
13806;DHT22;6974;53.606;9.872;2022-11-13T03:37:57;7.60;99.90
13806;DHT22;6974;53.606;9.872;2022-11-13T03:40:25;7.60;99.90
13806;DHT22;6974;53.606;9.872;2022-11-13T03:42:52;7.60;99.90
13806;DHT22;6974;53.606;9.872;2022-11-13T03:45:19;7.50;99.90
13806;DHT22;6974;53.606;9.872;2022-11-13T03:47:47;7.50;99.90
13806;DHT22;6974;53.606;9.872;2022-11-13T03:50:16;7.50;99.90
13806;DHT22;6974;53.606;9.872;2022-11-13T03:52:45;7.50;99.90
13806;DHT22;6974;53.606;9.872;2022-11-13T03:55:12;7.50;99.90
13806;DHT22;6974;53.606;9.872;2022-11-13T03:57:39;7.50;99.90
13806;DHT22;6974;53.606;9.872;2022-11-13T04:00:07;7.50;99.90
13806;DHT22;6974;53.606;9.872;2022-11-13T04:02:36;7.50;99.90
13806;DHT22;6974;53.606;9.872;2022-11-13T04:05:04;7.50;99.90
13806;DHT22;6974;53.606;9.872;2022-11-13T04:07:31;7.50;99.90
13806;DHT22;6974;53.606;9.872;2022-11-13T04:10:00;7.50;99.90
13806;DHT22;6974;53.606;9.872;2022-11-13T04:12:27;7.50;99.90
13806;DHT22;6974;53.606;9.872;2022-11-13T04:14:54;7.50;99.90
13806;DHT22;6974;53.606;9.872;2022-11-13T04:17:22;7.40;99.90
13806;DHT22;6974;53.606;9.872;2022-11-13T04:19:51;7.30;99.90
13806;DHT22;6974;53.606;9.872;2022-11-13T04:22:18;7.30;99.90
13806;DHT22;6974;53.606;9.872;2022-11-13T04:24:45;7.30;99.90
13806;DHT22;6974;53.606;9.872;2022-11-13T04:27:14;7.30;99.90
13806;DHT22;6974;53.606;9.872;2022-11-13T04:29:41;7.20;99.90
13806;DHT22;6974;53.606;9.872;2022-11-13T04:32:08;7.20;99.90
13806;DHT22;6974;53.606;9.872;2022-11-13T04:34:35;7.20;99.90
13806;DHT22;6974;53.606;9.872;2022-11-13T04:37:04;7.20;99.90
13806;DHT22;6974;53.606;9.872;2022-11-13T04:39:31;7.20;99.90
13806;DHT22;6974;53.606;9.872;2022-11-13T04:41:59;7.20;99.90
13806;DHT22;6974;53.606;9.872;2022-11-13T04:44:45;7.10;99.90
13806;DHT22;6974;53.606;9.872;2022-11-13T04:47:12;7.10;99.90
13806;DHT22;6974;53.606;9.872;2022-11-13T04:49:39;7.00;99.90
13806;DHT22;6974;53.606;9.872;2022-11-13T04:52:06;7.00;99.90
13806;DHT22;6974;53.606;9.872;2022-11-13T04:54:33;7.00;99.90
13806;DHT22;6974;53.606;9.872;2022-11-13T04:57:01;7.00;99.90
13806;DHT22;6974;53.606;9.872;2022-11-13T04:59:30;7.00;99.90
13806;DHT22;6974;53.606;9.872;2022-11-13T05:01:58;7.00;99.90
13806;DHT22;6974;53.606;9.872;2022-11-13T05:04:26;6.90;99.90
13806;DHT22;6974;53.606;9.872;2022-11-13T05:06:53;6.90;99.90
13806;DHT22;6974;53.606;9.872;2022-11-13T05:09:20;6.80;99.90
13806;DHT22;6974;53.606;9.872;2022-11-13T05:11:47;6.80;99.90
13806;DHT22;6974;53.606;9.872;2022-11-13T05:14:16;6.80;99.90
13806;DHT22;6974;53.606;9.872;2022-11-13T05:16:43;6.80;99.90
13806;DHT22;6974;53.606;9.872;2022-11-13T05:19:12;6.80;99.90
13806;DHT22;6974;53.606;9.872;2022-11-13T05:21:40;6.70;99.90
13806;DHT22;6974;53.606;9.872;2022-11-13T05:24:09;6.70;99.90
13806;DHT22;6974;53.606;9.872;2022-11-13T05:26:37;6.70;99.90
13806;DHT22;6974;53.606;9.872;2022-11-13T05:29:04;6.70;99.90
13806;DHT22;6974;53.606;9.872;2022-11-13T05:31:32;6.70;99.90
13806;DHT22;6974;53.606;9.872;2022-11-13T05:34:02;6.70;99.90
13806;DHT22;6974;53.606;9.872;2022-11-13T05:36:31;6.70;99.90
13806;DHT22;6974;53.606;9.872;2022-11-13T05:38:59;6.70;99.90
13806;DHT22;6974;53.606;9.872;2022-11-13T05:41:27;6.70;99.90
13806;DHT22;6974;53.606;9.872;2022-11-13T05:43:54;6.70;99.90
13806;DHT22;6974;53.606;9.872;2022-11-13T05:46:23;6.70;99.90
13806;DHT22;6974;53.606;9.872;2022-11-13T05:48:52;6.70;99.90
13806;DHT22;6974;53.606;9.872;2022-11-13T05:51:22;6.70;99.90
13806;DHT22;6974;53.606;9.872;2022-11-13T05:53:52;6.70;99.90
13806;DHT22;6974;53.606;9.872;2022-11-13T05:56:21;6.70;99.90
13806;DHT22;6974;53.606;9.872;2022-11-13T05:58:50;6.70;99.90
13806;DHT22;6974;53.606;9.872;2022-11-13T06:01:22;6.70;99.90
13806;DHT22;6974;53.606;9.872;2022-11-13T06:03:50;6.70;99.90
13806;DHT22;6974;53.606;9.872;2022-11-13T06:06:19;6.70;99.90
13806;DHT22;6974;53.606;9.872;2022-11-13T06:08:47;6.70;99.90
13806;DHT22;6974;53.606;9.872;2022-11-13T06:11:19;6.70;99.90
13806;DHT22;6974;53.606;9.872;2022-11-13T06:13:47;6.70;99.90
13806;DHT22;6974;53.606;9.872;2022-11-13T06:16:16;6.70;99.90
13806;DHT22;6974;53.606;9.872;2022-11-13T06:18:45;6.80;99.90
13806;DHT22;6974;53.606;9.872;2022-11-13T06:21:15;6.80;99.90
13806;DHT22;6974;53.606;9.872;2022-11-13T06:23:42;6.80;99.90
13806;DHT22;6974;53.606;9.872;2022-11-13T06:26:12;6.90;99.90
13806;DHT22;6974;53.606;9.872;2022-11-13T06:28:40;6.90;99.90
13806;DHT22;6974;53.606;9.872;2022-11-13T06:31:10;7.00;99.90
13806;DHT22;6974;53.606;9.872;2022-11-13T06:33:38;7.00;99.90
13806;DHT22;6974;53.606;9.872;2022-11-13T06:36:10;7.00;99.90
13806;DHT22;6974;53.606;9.872;2022-11-13T06:38:39;7.10;99.90
13806;DHT22;6974;53.606;9.872;2022-11-13T06:41:07;7.10;99.90
13806;DHT22;6974;53.606;9.872;2022-11-13T06:43:34;7.20;99.90
13806;DHT22;6974;53.606;9.872;2022-11-13T06:46:05;7.20;99.90
13806;DHT22;6974;53.606;9.872;2022-11-13T06:48:32;7.30;99.90
13806;DHT22;6974;53.606;9.872;2022-11-13T06:51:01;7.30;99.90
13806;DHT22;6974;53.606;9.872;2022-11-13T06:53:29;7.30;99.90
13806;DHT22;6974;53.606;9.872;2022-11-13T06:55:57;7.30;99.90
13806;DHT22;6974;53.606;9.872;2022-11-13T06:58:24;7.30;99.90
13806;DHT22;6974;53.606;9.872;2022-11-13T07:00:51;7.30;99.90
13806;DHT22;6974;53.606;9.872;2022-11-13T07:03:22;7.40;99.90
13806;DHT22;6974;53.606;9.872;2022-11-13T07:05:49;7.40;99.90
13806;DHT22;6974;53.606;9.872;2022-11-13T07:08:17;7.40;99.90
13806;DHT22;6974;53.606;9.872;2022-11-13T07:10:52;7.50;99.90
13806;DHT22;6974;53.606;9.872;2022-11-13T07:13:20;7.50;99.90
13806;DHT22;6974;53.606;9.872;2022-11-13T07:15:47;7.50;99.90
13806;DHT22;6974;53.606;9.872;2022-11-13T07:18:15;7.50;99.90
13806;DHT22;6974;53.606;9.872;2022-11-13T07:20:43;7.60;99.90
13806;DHT22;6974;53.606;9.872;2022-11-13T07:23:11;7.70;99.90
13806;DHT22;6974;53.606;9.872;2022-11-13T07:25:38;7.70;99.90
13806;DHT22;6974;53.606;9.872;2022-11-13T07:28:05;7.70;99.90
13806;DHT22;6974;53.606;9.872;2022-11-13T07:30:32;7.80;99.90
13806;DHT22;6974;53.606;9.872;2022-11-13T07:33:01;7.90;99.90
13806;DHT22;6974;53.606;9.872;2022-11-13T07:35:28;7.90;99.90
13806;DHT22;6974;53.606;9.872;2022-11-13T07:37:57;7.90;99.90
13806;DHT22;6974;53.606;9.872;2022-11-13T07:40:24;8.00;99.90
13806;DHT22;6974;53.606;9.872;2022-11-13T07:42:58;8.00;99.90
13806;DHT22;6974;53.606;9.872;2022-11-13T07:45:26;8.00;99.90
13806;DHT22;6974;53.606;9.872;2022-11-13T07:47:57;8.00;99.90
13806;DHT22;6974;53.606;9.872;2022-11-13T07:50:24;8.10;99.90
13806;DHT22;6974;53.606;9.872;2022-11-13T07:52:56;8.10;99.90
13806;DHT22;6974;53.606;9.872;2022-11-13T07:55:24;8.10;99.90
13806;DHT22;6974;53.606;9.872;2022-11-13T07:57:54;8.10;99.90
13806;DHT22;6974;53.606;9.872;2022-11-13T08:00:24;8.10;99.90
13806;DHT22;6974;53.606;9.872;2022-11-13T08:02:51;8.20;99.90
13806;DHT22;6974;53.606;9.872;2022-11-13T08:05:18;8.20;99.90
13806;DHT22;6974;53.606;9.872;2022-11-13T08:07:46;8.20;99.90
13806;DHT22;6974;53.606;9.872;2022-11-13T08:10:17;8.30;99.90
13806;DHT22;6974;53.606;9.872;2022-11-13T08:12:45;8.40;99.90
13806;DHT22;6974;53.606;9.872;2022-11-13T08:15:12;8.40;99.90
13806;DHT22;6974;53.606;9.872;2022-11-13T08:17:40;8.50;99.90
13806;DHT22;6974;53.606;9.872;2022-11-13T08:20:08;8.50;99.90
13806;DHT22;6974;53.606;9.872;2022-11-13T08:22:36;8.50;99.90
13806;DHT22;6974;53.606;9.872;2022-11-13T08:25:04;8.50;99.90
13806;DHT22;6974;53.606;9.872;2022-11-13T08:27:33;8.50;99.90
13806;DHT22;6974;53.606;9.872;2022-11-13T08:30:01;8.50;99.90
13806;DHT22;6974;53.606;9.872;2022-11-13T08:32:28;8.50;99.90
13806;DHT22;6974;53.606;9.872;2022-11-13T08:34:55;8.50;99.90
13806;DHT22;6974;53.606;9.872;2022-11-13T08:37:22;8.50;99.90
13806;DHT22;6974;53.606;9.872;2022-11-13T08:39:49;8.50;99.90
13806;DHT22;6974;53.606;9.872;2022-11-13T08:42:16;8.60;99.90
13806;DHT22;6974;53.606;9.872;2022-11-13T08:44:44;8.60;99.90
13806;DHT22;6974;53.606;9.872;2022-11-13T08:47:11;8.60;99.90
13806;DHT22;6974;53.606;9.872;2022-11-13T08:49:38;8.60;99.90
13806;DHT22;6974;53.606;9.872;2022-11-13T08:52:05;8.60;99.90
13806;DHT22;6974;53.606;9.872;2022-11-13T08:54:31;8.60;99.90
13806;DHT22;6974;53.606;9.872;2022-11-13T08:56:58;8.60;99.90
13806;DHT22;6974;53.606;9.872;2022-11-13T08:59:25;8.70;99.90
13806;DHT22;6974;53.606;9.872;2022-11-13T09:01:54;8.60;99.90
13806;DHT22;6974;53.606;9.872;2022-11-13T09:04:23;8.60;99.90
13806;DHT22;6974;53.606;9.872;2022-11-13T09:06:50;8.50;99.90
13806;DHT22;6974;53.606;9.872;2022-11-13T09:09:17;8.50;99.90
13806;DHT22;6974;53.606;9.872;2022-11-13T09:11:44;8.50;99.90
13806;DHT22;6974;53.606;9.872;2022-11-13T09:14:11;8.50;99.90
13806;DHT22;6974;53.606;9.872;2022-11-13T09:16:38;8.60;99.90
13806;DHT22;6974;53.606;9.872;2022-11-13T09:19:07;8.50;99.90
13806;DHT22;6974;53.606;9.872;2022-11-13T09:21:34;8.60;99.90
13806;DHT22;6974;53.606;9.872;2022-11-13T09:24:01;8.50;99.90
13806;DHT22;6974;53.606;9.872;2022-11-13T09:26:27;8.50;99.90
13806;DHT22;6974;53.606;9.872;2022-11-13T09:28:54;8.60;99.90
13806;DHT22;6974;53.606;9.872;2022-11-13T09:31:21;8.50;99.90
13806;DHT22;6974;53.606;9.872;2022-11-13T09:33:48;8.50;99.90
13806;DHT22;6974;53.606;9.872;2022-11-13T09:36:16;8.50;99.90
13806;DHT22;6974;53.606;9.872;2022-11-13T09:38:43;8.50;99.90
13806;DHT22;6974;53.606;9.872;2022-11-13T09:41:13;8.50;99.90
13806;DHT22;6974;53.606;9.872;2022-11-13T09:43:44;8.50;99.90
13806;DHT22;6974;53.606;9.872;2022-11-13T09:46:17;8.60;99.90
13806;DHT22;6974;53.606;9.872;2022-11-13T09:48:48;8.60;99.90
13806;DHT22;6974;53.606;9.872;2022-11-13T09:51:20;8.70;99.90
13806;DHT22;6974;53.606;9.872;2022-11-13T09:53:48;8.70;99.90
13806;DHT22;6974;53.606;9.872;2022-11-13T09:56:24;8.80;99.90
13806;DHT22;6974;53.606;9.872;2022-11-13T09:58:59;8.90;99.90
13806;DHT22;6974;53.606;9.872;2022-11-13T10:01:30;9.00;99.90
13806;DHT22;6974;53.606;9.872;2022-11-13T10:04:03;9.00;99.90
13806;DHT22;6974;53.606;9.872;2022-11-13T10:06:43;9.10;99.90
13806;DHT22;6974;53.606;9.872;2022-11-13T10:09:18;9.10;99.90
13806;DHT22;6974;53.606;9.872;2022-11-13T10:11:50;9.10;99.90
13806;DHT22;6974;53.606;9.872;2022-11-13T10:14:22;9.20;99.90
13806;DHT22;6974;53.606;9.872;2022-11-13T10:16:53;9.20;99.90
13806;DHT22;6974;53.606;9.872;2022-11-13T10:19:26;9.20;99.90
13806;DHT22;6974;53.606;9.872;2022-11-13T10:22:01;9.20;99.90
13806;DHT22;6974;53.606;9.872;2022-11-13T10:24:35;9.20;99.90
13806;DHT22;6974;53.606;9.872;2022-11-13T10:27:06;9.30;99.90
13806;DHT22;6974;53.606;9.872;2022-11-13T10:29:33;9.30;99.90
13806;DHT22;6974;53.606;9.872;2022-11-13T10:32:15;9.30;99.90
13806;DHT22;6974;53.606;9.872;2022-11-13T10:34:43;9.30;99.90
13806;DHT22;6974;53.606;9.872;2022-11-13T10:37:26;9.30;99.90
13806;DHT22;6974;53.606;9.872;2022-11-13T10:39:54;9.30;99.90
13806;DHT22;6974;53.606;9.872;2022-11-13T10:42:22;9.30;99.90
13806;DHT22;6974;53.606;9.872;2022-11-13T10:44:55;9.30;99.90
13806;DHT22;6974;53.606;9.872;2022-11-13T10:47:23;9.40;99.90
13806;DHT22;6974;53.606;9.872;2022-11-13T10:49:50;9.40;99.90
13806;DHT22;6974;53.606;9.872;2022-11-13T10:52:20;9.40;99.90
13806;DHT22;6974;53.606;9.872;2022-11-13T10:54:48;9.50;99.90
13806;DHT22;6974;53.606;9.872;2022-11-13T10:57:23;9.50;99.90
13806;DHT22;6974;53.606;9.872;2022-11-13T10:59:52;9.50;99.90
13806;DHT22;6974;53.606;9.872;2022-11-13T11:02:21;9.60;99.90
13806;DHT22;6974;53.606;9.872;2022-11-13T11:04:48;9.60;99.90
13806;DHT22;6974;53.606;9.872;2022-11-13T11:07:17;9.60;99.90
13806;DHT22;6974;53.606;9.872;2022-11-13T11:09:46;9.60;99.90
13806;DHT22;6974;53.606;9.872;2022-11-13T11:12:15;9.50;99.90
13806;DHT22;6974;53.606;9.872;2022-11-13T11:14:57;9.60;99.90
13806;DHT22;6974;53.606;9.872;2022-11-13T11:17:28;9.60;99.90
13806;DHT22;6974;53.606;9.872;2022-11-13T11:20:00;9.60;99.90
13806;DHT22;6974;53.606;9.872;2022-11-13T11:22:33;9.50;99.90
13806;DHT22;6974;53.606;9.872;2022-11-13T11:25:05;9.50;99.90
13806;DHT22;6974;53.606;9.872;2022-11-13T11:27:40;9.50;99.90
13806;DHT22;6974;53.606;9.872;2022-11-13T11:30:18;9.60;99.90
13806;DHT22;6974;53.606;9.872;2022-11-13T11:32:49;9.50;99.90
13806;DHT22;6974;53.606;9.872;2022-11-13T11:35:20;9.50;99.90
13806;DHT22;6974;53.606;9.872;2022-11-13T11:37:53;9.50;99.90
13806;DHT22;6974;53.606;9.872;2022-11-13T11:40:26;9.50;99.90
13806;DHT22;6974;53.606;9.872;2022-11-13T11:43:02;9.50;99.90
13806;DHT22;6974;53.606;9.872;2022-11-13T11:45:36;9.50;99.90
13806;DHT22;6974;53.606;9.872;2022-11-13T11:48:10;9.40;99.90
13806;DHT22;6974;53.606;9.872;2022-11-13T11:50:43;9.40;99.90
13806;DHT22;6974;53.606;9.872;2022-11-13T11:53:14;9.40;99.90
13806;DHT22;6974;53.606;9.872;2022-11-13T11:56:05;9.40;99.90
13806;DHT22;6974;53.606;9.872;2022-11-13T11:58:54;9.50;99.90
13806;DHT22;6974;53.606;9.872;2022-11-13T12:01:35;9.50;99.90
13806;DHT22;6974;53.606;9.872;2022-11-13T12:04:20;9.50;99.90
13806;DHT22;6974;53.606;9.872;2022-11-13T12:07:00;9.50;99.90
13806;DHT22;6974;53.606;9.872;2022-11-13T12:09:35;9.50;99.90
13806;DHT22;6974;53.606;9.872;2022-11-13T12:12:09;9.60;99.90
13806;DHT22;6974;53.606;9.872;2022-11-13T12:14:45;9.60;99.90
13806;DHT22;6974;53.606;9.872;2022-11-13T12:17:28;9.60;99.90
13806;DHT22;6974;53.606;9.872;2022-11-13T12:20:02;9.60;99.90
13806;DHT22;6974;53.606;9.872;2022-11-13T12:22:39;9.70;99.90
13806;DHT22;6974;53.606;9.872;2022-11-13T12:25:15;9.70;99.90
13806;DHT22;6974;53.606;9.872;2022-11-13T12:27:50;9.70;99.90
13806;DHT22;6974;53.606;9.872;2022-11-13T12:30:21;9.80;99.90
13806;DHT22;6974;53.606;9.872;2022-11-13T12:35:54;9.80;99.90
13806;DHT22;6974;53.606;9.872;2022-11-13T12:38:30;9.80;99.90
13806;DHT22;6974;53.606;9.872;2022-11-13T12:41:06;9.90;99.90
13806;DHT22;6974;53.606;9.872;2022-11-13T12:43:57;9.90;99.90
13806;DHT22;6974;53.606;9.872;2022-11-13T12:46:33;9.90;99.90
13806;DHT22;6974;53.606;9.872;2022-11-13T12:49:02;10.00;99.90
13806;DHT22;6974;53.606;9.872;2022-11-13T12:51:40;9.90;99.90
13806;DHT22;6974;53.606;9.872;2022-11-13T12:54:08;10.00;99.90
13806;DHT22;6974;53.606;9.872;2022-11-13T12:56:35;10.00;99.90
13806;DHT22;6974;53.606;9.872;2022-11-13T12:59:29;10.00;99.90
13806;DHT22;6974;53.606;9.872;2022-11-13T13:02:07;10.10;99.90
13806;DHT22;6974;53.606;9.872;2022-11-13T13:04:48;10.10;99.90
13806;DHT22;6974;53.606;9.872;2022-11-13T13:07:33;10.10;99.90
13806;DHT22;6974;53.606;9.872;2022-11-13T13:10:11;10.10;99.90
13806;DHT22;6974;53.606;9.872;2022-11-13T13:12:45;10.10;99.90
13806;DHT22;6974;53.606;9.872;2022-11-13T13:15:29;10.10;99.90
13806;DHT22;6974;53.606;9.872;2022-11-13T13:18:09;10.10;99.90
13806;DHT22;6974;53.606;9.872;2022-11-13T13:20:38;10.10;99.90
13806;DHT22;6974;53.606;9.872;2022-11-13T13:23:25;10.00;99.90
13806;DHT22;6974;53.606;9.872;2022-11-13T13:26:01;10.10;99.90
13806;DHT22;6974;53.606;9.872;2022-11-13T13:28:30;10.00;99.90
13806;DHT22;6974;53.606;9.872;2022-11-13T13:31:05;10.00;99.90
13806;DHT22;6974;53.606;9.872;2022-11-13T13:33:45;10.10;99.90
13806;DHT22;6974;53.606;9.872;2022-11-13T13:36:23;10.00;99.90
13806;DHT22;6974;53.606;9.872;2022-11-13T13:38:57;10.00;99.90
13806;DHT22;6974;53.606;9.872;2022-11-13T13:41:43;10.10;99.90
13806;DHT22;6974;53.606;9.872;2022-11-13T13:44:25;10.10;99.90
13806;DHT22;6974;53.606;9.872;2022-11-13T13:46:57;10.00;99.90
13806;DHT22;6974;53.606;9.872;2022-11-13T13:49:25;10.00;99.90
13806;DHT22;6974;53.606;9.872;2022-11-13T13:51:54;10.00;99.90
13806;DHT22;6974;53.606;9.872;2022-11-13T13:54:25;10.10;99.90
13806;DHT22;6974;53.606;9.872;2022-11-13T13:56:53;10.10;99.90
13806;DHT22;6974;53.606;9.872;2022-11-13T13:59:26;10.10;99.90
13806;DHT22;6974;53.606;9.872;2022-11-13T14:01:57;10.00;99.90
13806;DHT22;6974;53.606;9.872;2022-11-13T14:04:25;10.10;99.90
13806;DHT22;6974;53.606;9.872;2022-11-13T14:06:54;10.10;99.90
13806;DHT22;6974;53.606;9.872;2022-11-13T14:09:22;10.10;99.90
13806;DHT22;6974;53.606;9.872;2022-11-13T14:11:55;10.10;99.90
13806;DHT22;6974;53.606;9.872;2022-11-13T14:14:23;10.10;99.90
13806;DHT22;6974;53.606;9.872;2022-11-13T14:16:52;10.10;99.90
13806;DHT22;6974;53.606;9.872;2022-11-13T14:19:20;10.10;99.90
13806;DHT22;6974;53.606;9.872;2022-11-13T14:21:48;10.10;99.90
13806;DHT22;6974;53.606;9.872;2022-11-13T14:24:21;10.10;99.90
13806;DHT22;6974;53.606;9.872;2022-11-13T14:26:50;10.10;99.90
13806;DHT22;6974;53.606;9.872;2022-11-13T14:29:25;10.10;99.90
13806;DHT22;6974;53.606;9.872;2022-11-13T14:31:54;10.10;99.90
13806;DHT22;6974;53.606;9.872;2022-11-13T14:34:29;10.00;99.90
13806;DHT22;6974;53.606;9.872;2022-11-13T14:39:28;10.00;99.90
13806;DHT22;6974;53.606;9.872;2022-11-13T14:41:58;10.10;99.90
13806;DHT22;6974;53.606;9.872;2022-11-13T14:44:26;10.10;99.90
13806;DHT22;6974;53.606;9.872;2022-11-13T14:47:01;10.10;99.90
13806;DHT22;6974;53.606;9.872;2022-11-13T14:49:32;10.10;99.90
13806;DHT22;6974;53.606;9.872;2022-11-13T14:52:00;10.10;99.90
13806;DHT22;6974;53.606;9.872;2022-11-13T14:54:30;10.10;99.90
13806;DHT22;6974;53.606;9.872;2022-11-13T14:57:07;10.10;99.90
13806;DHT22;6974;53.606;9.872;2022-11-13T14:59:36;10.10;99.90
13806;DHT22;6974;53.606;9.872;2022-11-13T15:02:09;10.00;99.90
13806;DHT22;6974;53.606;9.872;2022-11-13T15:04:38;10.10;99.90
13806;DHT22;6974;53.606;9.872;2022-11-13T15:07:22;10.10;99.90
13806;DHT22;6974;53.606;9.872;2022-11-13T15:09:52;10.10;99.90
13806;DHT22;6974;53.606;9.872;2022-11-13T15:12:19;10.00;99.90
13806;DHT22;6974;53.606;9.872;2022-11-13T15:14:47;10.00;99.90
13806;DHT22;6974;53.606;9.872;2022-11-13T15:17:16;10.00;99.90
13806;DHT22;6974;53.606;9.872;2022-11-13T15:19:47;10.10;99.90
13806;DHT22;6974;53.606;9.872;2022-11-13T15:22:16;10.00;99.90
13806;DHT22;6974;53.606;9.872;2022-11-13T15:24:43;10.00;99.90
13806;DHT22;6974;53.606;9.872;2022-11-13T15:27:13;10.00;99.90
13806;DHT22;6974;53.606;9.872;2022-11-13T15:29:41;10.10;99.90
13806;DHT22;6974;53.606;9.872;2022-11-13T15:32:10;10.00;99.90
13806;DHT22;6974;53.606;9.872;2022-11-13T15:34:37;10.00;99.90
13806;DHT22;6974;53.606;9.872;2022-11-13T15:37:11;10.00;99.90
13806;DHT22;6974;53.606;9.872;2022-11-13T15:39:38;10.00;99.90
13806;DHT22;6974;53.606;9.872;2022-11-13T15:42:10;10.00;99.90
13806;DHT22;6974;53.606;9.872;2022-11-13T15:44:38;10.00;99.90
13806;DHT22;6974;53.606;9.872;2022-11-13T15:47:24;10.00;99.90
13806;DHT22;6974;53.606;9.872;2022-11-13T15:49:52;10.10;99.90
13806;DHT22;6974;53.606;9.872;2022-11-13T15:52:21;10.10;99.90
13806;DHT22;6974;53.606;9.872;2022-11-13T15:54:49;10.00;99.90
13806;DHT22;6974;53.606;9.872;2022-11-13T15:57:19;10.00;99.90
13806;DHT22;6974;53.606;9.872;2022-11-13T15:59:46;10.00;99.90
13806;DHT22;6974;53.606;9.872;2022-11-13T16:02:13;10.10;99.90
13806;DHT22;6974;53.606;9.872;2022-11-13T16:04:40;10.10;99.90
13806;DHT22;6974;53.606;9.872;2022-11-13T16:07:12;10.00;99.90
13806;DHT22;6974;53.606;9.872;2022-11-13T16:09:44;10.10;99.90
13806;DHT22;6974;53.606;9.872;2022-11-13T16:12:12;10.10;99.90
13806;DHT22;6974;53.606;9.872;2022-11-13T16:14:39;10.10;99.90
13806;DHT22;6974;53.606;9.872;2022-11-13T16:17:11;10.10;99.90
13806;DHT22;6974;53.606;9.872;2022-11-13T16:19:39;10.10;99.90
13806;DHT22;6974;53.606;9.872;2022-11-13T16:22:16;10.10;99.90